sensor_id;sensor_type;location;lat;lon;timestamp;P1;durP1;ratioP1;P2;durP2;ratioP2
59336;SDS011;45115;52.002;4.686;2022-09-09T00:00:21;11.35;;;6.00;;
59336;SDS011;45115;52.002;4.686;2022-09-09T00:02:50;10.13;;;5.97;;
59336;SDS011;45115;52.002;4.686;2022-09-09T00:05:27;10.73;;;6.03;;
59336;SDS011;45115;52.002;4.686;2022-09-09T00:07:58;12.98;;;6.85;;
59336;SDS011;45115;52.002;4.686;2022-09-09T00:10:29;12.77;;;6.35;;
59336;SDS011;45115;52.002;4.686;2022-09-09T00:13:01;12.63;;;6.78;;
59336;SDS011;45115;52.002;4.686;2022-09-09T00:15:37;14.20;;;7.40;;
59336;SDS011;45115;52.002;4.686;2022-09-09T00:18:11;13.65;;;8.38;;
59336;SDS011;45115;52.002;4.686;2022-09-09T00:20:44;13.13;;;7.57;;
59336;SDS011;45115;52.002;4.686;2022-09-09T00:23:18;14.25;;;7.93;;
59336;SDS011;45115;52.002;4.686;2022-09-09T00:25:51;17.05;;;8.40;;
59336;SDS011;45115;52.002;4.686;2022-09-09T00:28:27;14.23;;;8.07;;
59336;SDS011;45115;52.002;4.686;2022-09-09T00:30:59;16.25;;;8.60;;
59336;SDS011;45115;52.002;4.686;2022-09-09T00:33:28;14.52;;;7.88;;
59336;SDS011;45115;52.002;4.686;2022-09-09T00:35:57;16.13;;;8.52;;
59336;SDS011;45115;52.002;4.686;2022-09-09T00:38:27;16.55;;;8.63;;
59336;SDS011;45115;52.002;4.686;2022-09-09T00:41:00;13.82;;;8.40;;
59336;SDS011;45115;52.002;4.686;2022-09-09T00:43:39;15.52;;;9.32;;
59336;SDS011;45115;52.002;4.686;2022-09-09T00:46:16;15.30;;;8.52;;
59336;SDS011;45115;52.002;4.686;2022-09-09T00:48:56;13.80;;;8.45;;
59336;SDS011;45115;52.002;4.686;2022-09-09T00:51:34;15.40;;;8.43;;
59336;SDS011;45115;52.002;4.686;2022-09-09T00:54:22;15.13;;;8.18;;
59336;SDS011;45115;52.002;4.686;2022-09-09T00:57:02;15.02;;;8.63;;
59336;SDS011;45115;52.002;4.686;2022-09-09T00:59:42;17.10;;;8.88;;
59336;SDS011;45115;52.002;4.686;2022-09-09T01:02:16;15.57;;;9.32;;
59336;SDS011;45115;52.002;4.686;2022-09-09T01:04:49;15.65;;;9.13;;
59336;SDS011;45115;52.002;4.686;2022-09-09T01:07:16;15.60;;;9.00;;
59336;SDS011;45115;52.002;4.686;2022-09-09T01:09:51;17.17;;;8.77;;
59336;SDS011;45115;52.002;4.686;2022-09-09T01:12:25;16.00;;;8.70;;
59336;SDS011;45115;52.002;4.686;2022-09-09T01:15:01;14.98;;;8.15;;
59336;SDS011;45115;52.002;4.686;2022-09-09T01:17:40;14.57;;;7.72;;
59336;SDS011;45115;52.002;4.686;2022-09-09T01:20:17;16.33;;;8.35;;
59336;SDS011;45115;52.002;4.686;2022-09-09T01:23:02;15.90;;;8.57;;
59336;SDS011;45115;52.002;4.686;2022-09-09T01:26:04;14.93;;;7.85;;
59336;SDS011;45115;52.002;4.686;2022-09-09T01:28:38;17.13;;;8.50;;
59336;SDS011;45115;52.002;4.686;2022-09-09T01:31:11;15.48;;;8.70;;
59336;SDS011;45115;52.002;4.686;2022-09-09T01:33:45;15.73;;;8.73;;
59336;SDS011;45115;52.002;4.686;2022-09-09T01:36:14;16.45;;;8.68;;
59336;SDS011;45115;52.002;4.686;2022-09-09T01:38:48;16.60;;;8.55;;
59336;SDS011;45115;52.002;4.686;2022-09-09T01:41:18;15.45;;;8.80;;
59336;SDS011;45115;52.002;4.686;2022-09-09T01:44:07;17.45;;;8.90;;
59336;SDS011;45115;52.002;4.686;2022-09-09T01:46:36;14.30;;;8.27;;
59336;SDS011;45115;52.002;4.686;2022-09-09T01:49:05;16.33;;;8.55;;
59336;SDS011;45115;52.002;4.686;2022-09-09T01:51:34;15.80;;;8.35;;
59336;SDS011;45115;52.002;4.686;2022-09-09T01:54:05;14.98;;;6.95;;
59336;SDS011;45115;52.002;4.686;2022-09-09T01:56:38;15.90;;;8.18;;
59336;SDS011;45115;52.002;4.686;2022-09-09T01:59:24;15.38;;;7.85;;
59336;SDS011;45115;52.002;4.686;2022-09-09T02:02:06;17.45;;;7.95;;
59336;SDS011;45115;52.002;4.686;2022-09-09T02:04:42;14.77;;;7.72;;
59336;SDS011;45115;52.002;4.686;2022-09-09T02:07:22;14.10;;;7.53;;
59336;SDS011;45115;52.002;4.686;2022-09-09T02:10:02;14.75;;;7.68;;
59336;SDS011;45115;52.002;4.686;2022-09-09T02:12:37;17.10;;;7.53;;
59336;SDS011;45115;52.002;4.686;2022-09-09T02:15:08;14.50;;;7.60;;
59336;SDS011;45115;52.002;4.686;2022-09-09T02:17:46;13.60;;;7.38;;
59336;SDS011;45115;52.002;4.686;2022-09-09T02:20:17;16.23;;;8.05;;
59336;SDS011;45115;52.002;4.686;2022-09-09T02:22:53;13.93;;;6.75;;
59336;SDS011;45115;52.002;4.686;2022-09-09T02:25:23;13.65;;;7.32;;
59336;SDS011;45115;52.002;4.686;2022-09-09T02:27:56;13.23;;;7.10;;
59336;SDS011;45115;52.002;4.686;2022-09-09T02:30:24;16.17;;;8.10;;
59336;SDS011;45115;52.002;4.686;2022-09-09T02:32:55;15.82;;;7.75;;
59336;SDS011;45115;52.002;4.686;2022-09-09T02:35:36;18.27;;;8.00;;
59336;SDS011;45115;52.002;4.686;2022-09-09T02:38:05;14.88;;;7.80;;
59336;SDS011;45115;52.002;4.686;2022-09-09T02:40:38;17.92;;;8.35;;
59336;SDS011;45115;52.002;4.686;2022-09-09T02:43:06;15.65;;;7.78;;
59336;SDS011;45115;52.002;4.686;2022-09-09T02:45:35;16.20;;;8.85;;
59336;SDS011;45115;52.002;4.686;2022-09-09T02:48:12;16.40;;;8.65;;
59336;SDS011;45115;52.002;4.686;2022-09-09T02:50:46;15.60;;;8.40;;
59336;SDS011;45115;52.002;4.686;2022-09-09T02:53:23;17.83;;;9.23;;
59336;SDS011;45115;52.002;4.686;2022-09-09T02:55:54;14.35;;;8.75;;
59336;SDS011;45115;52.002;4.686;2022-09-09T02:58:26;15.68;;;8.90;;
59336;SDS011;45115;52.002;4.686;2022-09-09T03:00:58;16.38;;;9.50;;
59336;SDS011;45115;52.002;4.686;2022-09-09T03:03:26;19.27;;;9.68;;
59336;SDS011;45115;52.002;4.686;2022-09-09T03:05:53;19.75;;;9.70;;
59336;SDS011;45115;52.002;4.686;2022-09-09T03:08:20;17.88;;;9.55;;
59336;SDS011;45115;52.002;4.686;2022-09-09T03:10:46;19.17;;;10.93;;
59336;SDS011;45115;52.002;4.686;2022-09-09T03:13:14;17.90;;;9.88;;
59336;SDS011;45115;52.002;4.686;2022-09-09T03:15:43;18.55;;;9.55;;
59336;SDS011;45115;52.002;4.686;2022-09-09T03:18:14;18.30;;;10.52;;
59336;SDS011;45115;52.002;4.686;2022-09-09T03:20:41;19.27;;;10.45;;
59336;SDS011;45115;52.002;4.686;2022-09-09T03:23:09;16.90;;;9.88;;
59336;SDS011;45115;52.002;4.686;2022-09-09T03:25:36;17.30;;;10.73;;
59336;SDS011;45115;52.002;4.686;2022-09-09T03:28:04;19.88;;;10.32;;
59336;SDS011;45115;52.002;4.686;2022-09-09T03:30:31;17.73;;;9.80;;
59336;SDS011;45115;52.002;4.686;2022-09-09T03:32:59;20.23;;;10.88;;
59336;SDS011;45115;52.002;4.686;2022-09-09T03:35:30;16.90;;;9.93;;
59336;SDS011;45115;52.002;4.686;2022-09-09T03:37:57;19.58;;;10.55;;
59336;SDS011;45115;52.002;4.686;2022-09-09T03:40:24;17.90;;;10.10;;
59336;SDS011;45115;52.002;4.686;2022-09-09T03:42:52;18.55;;;9.50;;
59336;SDS011;45115;52.002;4.686;2022-09-09T03:45:19;16.77;;;10.45;;
59336;SDS011;45115;52.002;4.686;2022-09-09T03:47:46;17.58;;;9.63;;
59336;SDS011;45115;52.002;4.686;2022-09-09T03:50:14;18.95;;;9.55;;
59336;SDS011;45115;52.002;4.686;2022-09-09T03:52:44;16.13;;;8.73;;
59336;SDS011;45115;52.002;4.686;2022-09-09T03:55:17;18.80;;;9.38;;
59336;SDS011;45115;52.002;4.686;2022-09-09T03:57:44;15.95;;;8.23;;
59336;SDS011;45115;52.002;4.686;2022-09-09T04:00:11;16.30;;;7.97;;
59336;SDS011;45115;52.002;4.686;2022-09-09T04:02:41;15.13;;;7.47;;
59336;SDS011;45115;52.002;4.686;2022-09-09T04:05:09;16.00;;;7.78;;
59336;SDS011;45115;52.002;4.686;2022-09-09T04:07:40;13.50;;;6.70;;
59336;SDS011;45115;52.002;4.686;2022-09-09T04:10:07;13.48;;;7.60;;
59336;SDS011;45115;52.002;4.686;2022-09-09T04:12:37;15.10;;;6.93;;
59336;SDS011;45115;52.002;4.686;2022-09-09T04:15:04;15.50;;;7.13;;
59336;SDS011;45115;52.002;4.686;2022-09-09T04:17:32;14.80;;;7.13;;
59336;SDS011;45115;52.002;4.686;2022-09-09T04:19:58;15.02;;;6.07;;
59336;SDS011;45115;52.002;4.686;2022-09-09T04:22:26;12.90;;;6.20;;
59336;SDS011;45115;52.002;4.686;2022-09-09T04:24:54;11.48;;;5.57;;
59336;SDS011;45115;52.002;4.686;2022-09-09T04:27:21;11.93;;;5.68;;
59336;SDS011;45115;52.002;4.686;2022-09-09T04:29:48;11.95;;;5.57;;
59336;SDS011;45115;52.002;4.686;2022-09-09T04:32:15;12.82;;;5.88;;
59336;SDS011;45115;52.002;4.686;2022-09-09T04:34:42;11.95;;;5.05;;
59336;SDS011;45115;52.002;4.686;2022-09-09T04:37:10;12.30;;;4.95;;
59336;SDS011;45115;52.002;4.686;2022-09-09T04:39:37;10.85;;;5.38;;
59336;SDS011;45115;52.002;4.686;2022-09-09T04:42:06;11.63;;;4.95;;
59336;SDS011;45115;52.002;4.686;2022-09-09T04:44:33;13.35;;;4.80;;
59336;SDS011;45115;52.002;4.686;2022-09-09T04:47:00;12.32;;;4.63;;
59336;SDS011;45115;52.002;4.686;2022-09-09T04:49:26;11.45;;;4.50;;
59336;SDS011;45115;52.002;4.686;2022-09-09T04:51:54;10.35;;;4.80;;
59336;SDS011;45115;52.002;4.686;2022-09-09T04:54:21;11.52;;;4.70;;
59336;SDS011;45115;52.002;4.686;2022-09-09T04:56:49;10.32;;;4.88;;
59336;SDS011;45115;52.002;4.686;2022-09-09T04:59:19;11.90;;;5.22;;
59336;SDS011;45115;52.002;4.686;2022-09-09T05:01:50;8.70;;;4.70;;
59336;SDS011;45115;52.002;4.686;2022-09-09T05:04:17;9.98;;;4.47;;
59336;SDS011;45115;52.002;4.686;2022-09-09T05:06:44;13.30;;;4.93;;
59336;SDS011;45115;52.002;4.686;2022-09-09T05:09:12;13.75;;;4.70;;
59336;SDS011;45115;52.002;4.686;2022-09-09T05:11:39;9.13;;;4.20;;
59336;SDS011;45115;52.002;4.686;2022-09-09T05:14:15;14.02;;;5.20;;
59336;SDS011;45115;52.002;4.686;2022-09-09T05:16:43;13.10;;;5.22;;
59336;SDS011;45115;52.002;4.686;2022-09-09T05:19:12;12.00;;;4.88;;
59336;SDS011;45115;52.002;4.686;2022-09-09T05:21:45;11.15;;;4.40;;
59336;SDS011;45115;52.002;4.686;2022-09-09T05:24:14;11.55;;;4.55;;
59336;SDS011;45115;52.002;4.686;2022-09-09T05:26:42;10.23;;;4.28;;
59336;SDS011;45115;52.002;4.686;2022-09-09T05:29:09;10.80;;;4.68;;
59336;SDS011;45115;52.002;4.686;2022-09-09T05:31:36;12.20;;;4.88;;
59336;SDS011;45115;52.002;4.686;2022-09-09T05:34:09;10.55;;;4.55;;
59336;SDS011;45115;52.002;4.686;2022-09-09T05:36:36;12.30;;;5.07;;
59336;SDS011;45115;52.002;4.686;2022-09-09T05:39:03;11.18;;;4.70;;
59336;SDS011;45115;52.002;4.686;2022-09-09T05:41:31;11.45;;;4.82;;
59336;SDS011;45115;52.002;4.686;2022-09-09T05:44:00;14.32;;;4.80;;
59336;SDS011;45115;52.002;4.686;2022-09-09T05:46:29;12.80;;;4.50;;
59336;SDS011;45115;52.002;4.686;2022-09-09T05:48:56;10.38;;;4.55;;
59336;SDS011;45115;52.002;4.686;2022-09-09T05:51:30;10.98;;;4.40;;
59336;SDS011;45115;52.002;4.686;2022-09-09T05:54:02;10.65;;;4.45;;
59336;SDS011;45115;52.002;4.686;2022-09-09T05:56:32;9.32;;;4.43;;
59336;SDS011;45115;52.002;4.686;2022-09-09T05:58:59;14.07;;;4.40;;
59336;SDS011;45115;52.002;4.686;2022-09-09T06:01:27;10.00;;;3.67;;
59336;SDS011;45115;52.002;4.686;2022-09-09T06:03:56;8.88;;;4.45;;
59336;SDS011;45115;52.002;4.686;2022-09-09T06:06:24;8.27;;;3.88;;
59336;SDS011;45115;52.002;4.686;2022-09-09T06:08:55;7.35;;;3.67;;
59336;SDS011;45115;52.002;4.686;2022-09-09T06:11:26;10.10;;;3.70;;
59336;SDS011;45115;52.002;4.686;2022-09-09T06:13:57;12.05;;;3.70;;
59336;SDS011;45115;52.002;4.686;2022-09-09T06:16:25;8.60;;;3.65;;
59336;SDS011;45115;52.002;4.686;2022-09-09T06:18:53;8.73;;;3.55;;
59336;SDS011;45115;52.002;4.686;2022-09-09T06:21:24;9.60;;;2.97;;
59336;SDS011;45115;52.002;4.686;2022-09-09T06:23:51;8.35;;;3.38;;
59336;SDS011;45115;52.002;4.686;2022-09-09T06:26:21;11.05;;;3.50;;
59336;SDS011;45115;52.002;4.686;2022-09-09T06:28:50;9.35;;;3.78;;
59336;SDS011;45115;52.002;4.686;2022-09-09T06:31:20;9.98;;;3.58;;
59336;SDS011;45115;52.002;4.686;2022-09-09T06:33:49;7.72;;;3.25;;
59336;SDS011;45115;52.002;4.686;2022-09-09T06:36:18;8.65;;;3.80;;
59336;SDS011;45115;52.002;4.686;2022-09-09T06:38:46;8.32;;;3.90;;
59336;SDS011;45115;52.002;4.686;2022-09-09T06:41:15;11.40;;;3.70;;
59336;SDS011;45115;52.002;4.686;2022-09-09T06:43:45;7.68;;;3.67;;
59336;SDS011;45115;52.002;4.686;2022-09-09T06:46:13;9.02;;;3.80;;
59336;SDS011;45115;52.002;4.686;2022-09-09T06:48:40;12.27;;;4.15;;
59336;SDS011;45115;52.002;4.686;2022-09-09T06:51:11;7.43;;;3.65;;
59336;SDS011;45115;52.002;4.686;2022-09-09T06:53:40;9.73;;;4.72;;
59336;SDS011;45115;52.002;4.686;2022-09-09T06:56:17;10.18;;;4.90;;
59336;SDS011;45115;52.002;4.686;2022-09-09T06:58:47;11.23;;;4.03;;
59336;SDS011;45115;52.002;4.686;2022-09-09T07:01:21;11.30;;;5.03;;
59336;SDS011;45115;52.002;4.686;2022-09-09T07:03:50;11.20;;;4.50;;
59336;SDS011;45115;52.002;4.686;2022-09-09T07:06:19;11.55;;;5.03;;
59336;SDS011;45115;52.002;4.686;2022-09-09T07:08:50;9.02;;;4.75;;
59336;SDS011;45115;52.002;4.686;2022-09-09T07:11:18;8.27;;;4.72;;
59336;SDS011;45115;52.002;4.686;2022-09-09T07:13:47;12.35;;;5.65;;
59336;SDS011;45115;52.002;4.686;2022-09-09T07:16:15;8.55;;;5.35;;
59336;SDS011;45115;52.002;4.686;2022-09-09T07:18:43;13.05;;;5.53;;
59336;SDS011;45115;52.002;4.686;2022-09-09T07:21:10;12.48;;;5.88;;
59336;SDS011;45115;52.002;4.686;2022-09-09T07:23:39;12.10;;;5.45;;
59336;SDS011;45115;52.002;4.686;2022-09-09T07:26:07;9.98;;;5.20;;
59336;SDS011;45115;52.002;4.686;2022-09-09T07:28:36;10.50;;;5.55;;
59336;SDS011;45115;52.002;4.686;2022-09-09T07:31:05;12.20;;;5.53;;
59336;SDS011;45115;52.002;4.686;2022-09-09T07:33:34;10.63;;;5.30;;
59336;SDS011;45115;52.002;4.686;2022-09-09T07:36:02;11.68;;;4.88;;
59336;SDS011;45115;52.002;4.686;2022-09-09T07:38:31;11.52;;;5.00;;
59336;SDS011;45115;52.002;4.686;2022-09-09T07:41:02;12.90;;;5.97;;
59336;SDS011;45115;52.002;4.686;2022-09-09T07:43:33;10.32;;;5.93;;
59336;SDS011;45115;52.002;4.686;2022-09-09T07:46:00;10.07;;;5.50;;
59336;SDS011;45115;52.002;4.686;2022-09-09T07:48:28;10.30;;;5.85;;
59336;SDS011;45115;52.002;4.686;2022-09-09T07:51:03;10.93;;;5.60;;
59336;SDS011;45115;52.002;4.686;2022-09-09T07:53:34;12.02;;;5.50;;
59336;SDS011;45115;52.002;4.686;2022-09-09T07:56:02;9.75;;;5.40;;
59336;SDS011;45115;52.002;4.686;2022-09-09T07:58:30;10.85;;;5.60;;
59336;SDS011;45115;52.002;4.686;2022-09-09T08:00:57;12.10;;;5.57;;
59336;SDS011;45115;52.002;4.686;2022-09-09T08:03:23;10.35;;;5.22;;
59336;SDS011;45115;52.002;4.686;2022-09-09T08:05:52;13.30;;;5.78;;
59336;SDS011;45115;52.002;4.686;2022-09-09T08:08:18;14.43;;;5.70;;
59336;SDS011;45115;52.002;4.686;2022-09-09T08:10:45;16.15;;;7.03;;
59336;SDS011;45115;52.002;4.686;2022-09-09T08:13:11;13.45;;;6.00;;
59336;SDS011;45115;52.002;4.686;2022-09-09T08:15:39;11.70;;;6.43;;
59336;SDS011;45115;52.002;4.686;2022-09-09T08:18:07;11.13;;;5.65;;
59336;SDS011;45115;52.002;4.686;2022-09-09T08:20:35;14.93;;;5.38;;
59336;SDS011;45115;52.002;4.686;2022-09-09T08:23:04;12.77;;;5.88;;
59336;SDS011;45115;52.002;4.686;2022-09-09T08:25:31;11.52;;;5.47;;
59336;SDS011;45115;52.002;4.686;2022-09-09T08:27:59;11.70;;;5.55;;
59336;SDS011;45115;52.002;4.686;2022-09-09T08:30:26;11.55;;;5.50;;
59336;SDS011;45115;52.002;4.686;2022-09-09T08:32:52;14.38;;;5.00;;
59336;SDS011;45115;52.002;4.686;2022-09-09T08:35:20;12.40;;;5.65;;
59336;SDS011;45115;52.002;4.686;2022-09-09T08:37:48;11.55;;;5.05;;
59336;SDS011;45115;52.002;4.686;2022-09-09T08:40:22;10.15;;;5.03;;
59336;SDS011;45115;52.002;4.686;2022-09-09T08:42:56;12.95;;;4.90;;
59336;SDS011;45115;52.002;4.686;2022-09-09T08:45:29;10.32;;;4.60;;
59336;SDS011;45115;52.002;4.686;2022-09-09T08:48:10;10.80;;;4.75;;
59336;SDS011;45115;52.002;4.686;2022-09-09T08:50:43;11.98;;;4.53;;
59336;SDS011;45115;52.002;4.686;2022-09-09T08:53:17;12.30;;;4.60;;
59336;SDS011;45115;52.002;4.686;2022-09-09T08:55:51;11.98;;;5.00;;
59336;SDS011;45115;52.002;4.686;2022-09-09T08:58:29;11.85;;;4.90;;
59336;SDS011;45115;52.002;4.686;2022-09-09T09:01:05;9.73;;;4.78;;
59336;SDS011;45115;52.002;4.686;2022-09-09T09:03:53;11.75;;;5.38;;
59336;SDS011;45115;52.002;4.686;2022-09-09T09:06:30;12.98;;;4.70;;
59336;SDS011;45115;52.002;4.686;2022-09-09T09:09:11;13.27;;;5.07;;
59336;SDS011;45115;52.002;4.686;2022-09-09T09:11:48;11.32;;;5.40;;
59336;SDS011;45115;52.002;4.686;2022-09-09T09:14:18;10.40;;;5.63;;
59336;SDS011;45115;52.002;4.686;2022-09-09T09:16:49;14.20;;;5.95;;
59336;SDS011;45115;52.002;4.686;2022-09-09T09:19:19;11.32;;;5.53;;
59336;SDS011;45115;52.002;4.686;2022-09-09T09:21:49;14.20;;;5.50;;
59336;SDS011;45115;52.002;4.686;2022-09-09T09:24:20;9.27;;;5.20;;
59336;SDS011;45115;52.002;4.686;2022-09-09T09:26:54;11.43;;;5.57;;
59336;SDS011;45115;52.002;4.686;2022-09-09T09:29:23;11.63;;;5.10;;
59336;SDS011;45115;52.002;4.686;2022-09-09T09:31:52;12.27;;;5.22;;
59336;SDS011;45115;52.002;4.686;2022-09-09T09:34:23;12.55;;;5.43;;
59336;SDS011;45115;52.002;4.686;2022-09-09T09:36:52;9.93;;;4.97;;
59336;SDS011;45115;52.002;4.686;2022-09-09T09:39:25;10.02;;;4.78;;
59336;SDS011;45115;52.002;4.686;2022-09-09T09:41:57;10.75;;;5.15;;
59336;SDS011;45115;52.002;4.686;2022-09-09T09:44:26;11.90;;;5.53;;
59336;SDS011;45115;52.002;4.686;2022-09-09T09:47:06;10.50;;;4.75;;
59336;SDS011;45115;52.002;4.686;2022-09-09T09:49:34;15.52;;;5.15;;
59336;SDS011;45115;52.002;4.686;2022-09-09T09:52:01;9.82;;;4.72;;
59336;SDS011;45115;52.002;4.686;2022-09-09T09:54:29;9.50;;;4.80;;
59336;SDS011;45115;52.002;4.686;2022-09-09T09:57:09;9.98;;;4.72;;
59336;SDS011;45115;52.002;4.686;2022-09-09T09:59:39;12.70;;;5.10;;
59336;SDS011;45115;52.002;4.686;2022-09-09T10:02:22;12.13;;;5.15;;
59336;SDS011;45115;52.002;4.686;2022-09-09T10:05:02;10.02;;;5.20;;
59336;SDS011;45115;52.002;4.686;2022-09-09T10:07:32;9.23;;;4.10;;
59336;SDS011;45115;52.002;4.686;2022-09-09T10:09:59;8.65;;;4.53;;
59336;SDS011;45115;52.002;4.686;2022-09-09T10:12:30;9.32;;;4.00;;
59336;SDS011;45115;52.002;4.686;2022-09-09T10:15:15;10.20;;;4.25;;
59336;SDS011;45115;52.002;4.686;2022-09-09T10:17:57;10.85;;;4.03;;
59336;SDS011;45115;52.002;4.686;2022-09-09T10:20:34;14.02;;;4.38;;
59336;SDS011;45115;52.002;4.686;2022-09-09T10:23:12;9.38;;;3.88;;
59336;SDS011;45115;52.002;4.686;2022-09-09T10:26:01;10.07;;;4.18;;
59336;SDS011;45115;52.002;4.686;2022-09-09T10:28:45;8.82;;;4.00;;
59336;SDS011;45115;52.002;4.686;2022-09-09T10:31:25;7.63;;;4.10;;
59336;SDS011;45115;52.002;4.686;2022-09-09T10:34:01;8.70;;;4.03;;
59336;SDS011;45115;52.002;4.686;2022-09-09T10:36:36;9.38;;;4.57;;
59336;SDS011;45115;52.002;4.686;2022-09-09T10:39:13;5.88;;;3.63;;
59336;SDS011;45115;52.002;4.686;2022-09-09T10:41:55;7.43;;;3.47;;
59336;SDS011;45115;52.002;4.686;2022-09-09T10:44:38;7.75;;;3.80;;
59336;SDS011;45115;52.002;4.686;2022-09-09T10:47:20;8.57;;;3.75;;
59336;SDS011;45115;52.002;4.686;2022-09-09T10:50:02;9.10;;;4.38;;
59336;SDS011;45115;52.002;4.686;2022-09-09T10:52:41;7.50;;;3.88;;
59336;SDS011;45115;52.002;4.686;2022-09-09T10:55:20;9.32;;;3.78;;
59336;SDS011;45115;52.002;4.686;2022-09-09T10:57:52;11.07;;;3.83;;
59336;SDS011;45115;52.002;4.686;2022-09-09T11:02:52;6.00;;;3.60;;
59336;SDS011;45115;52.002;4.686;2022-09-09T11:05:24;6.40;;;3.53;;
59336;SDS011;45115;52.002;4.686;2022-09-09T11:07:55;8.07;;;3.60;;
59336;SDS011;45115;52.002;4.686;2022-09-09T11:10:26;8.32;;;3.80;;
59336;SDS011;45115;52.002;4.686;2022-09-09T11:13:00;6.07;;;3.30;;
59336;SDS011;45115;52.002;4.686;2022-09-09T11:15:35;6.18;;;3.53;;
59336;SDS011;45115;52.002;4.686;2022-09-09T11:18:07;5.10;;;3.92;;
59336;SDS011;45115;52.002;4.686;2022-09-09T11:20:40;6.93;;;3.58;;
59336;SDS011;45115;52.002;4.686;2022-09-09T11:23:09;7.88;;;3.80;;
59336;SDS011;45115;52.002;4.686;2022-09-09T11:25:41;7.75;;;3.72;;
59336;SDS011;45115;52.002;4.686;2022-09-09T11:28:20;6.72;;;3.75;;
59336;SDS011;45115;52.002;4.686;2022-09-09T11:31:04;6.50;;;4.00;;
59336;SDS011;45115;52.002;4.686;2022-09-09T11:33:53;7.38;;;4.70;;
59336;SDS011;45115;52.002;4.686;2022-09-09T11:36:38;7.38;;;4.60;;
59336;SDS011;45115;52.002;4.686;2022-09-09T11:39:24;6.55;;;4.13;;
59336;SDS011;45115;52.002;4.686;2022-09-09T11:42:16;7.65;;;4.43;;
59336;SDS011;45115;52.002;4.686;2022-09-09T11:44:44;9.82;;;4.82;;
59336;SDS011;45115;52.002;4.686;2022-09-09T11:47:22;7.38;;;4.50;;
59336;SDS011;45115;52.002;4.686;2022-09-09T11:49:54;11.45;;;5.30;;
59336;SDS011;45115;52.002;4.686;2022-09-09T11:52:22;9.63;;;5.38;;
59336;SDS011;45115;52.002;4.686;2022-09-09T11:54:54;11.55;;;5.25;;
59336;SDS011;45115;52.002;4.686;2022-09-09T11:57:25;10.13;;;5.13;;
59336;SDS011;45115;52.002;4.686;2022-09-09T11:59:57;9.45;;;5.13;;
59336;SDS011;45115;52.002;4.686;2022-09-09T12:02:28;10.55;;;6.07;;
59336;SDS011;45115;52.002;4.686;2022-09-09T12:04:58;12.95;;;5.80;;
59336;SDS011;45115;52.002;4.686;2022-09-09T12:07:34;9.73;;;6.00;;
59336;SDS011;45115;52.002;4.686;2022-09-09T12:10:05;13.82;;;5.55;;
59336;SDS011;45115;52.002;4.686;2022-09-09T12:12:46;13.43;;;6.65;;
59336;SDS011;45115;52.002;4.686;2022-09-09T12:15:17;13.15;;;6.05;;
59336;SDS011;45115;52.002;4.686;2022-09-09T12:17:48;12.48;;;5.53;;
59336;SDS011;45115;52.002;4.686;2022-09-09T12:20:17;11.30;;;6.57;;
59336;SDS011;45115;52.002;4.686;2022-09-09T12:25:48;11.23;;;5.70;;
59336;SDS011;45115;52.002;4.686;2022-09-09T12:28:25;11.63;;;6.10;;
59336;SDS011;45115;52.002;4.686;2022-09-09T12:31:01;12.30;;;6.50;;
59336;SDS011;45115;52.002;4.686;2022-09-09T12:33:35;17.10;;;6.72;;
59336;SDS011;45115;52.002;4.686;2022-09-09T12:36:04;14.52;;;7.40;;
59336;SDS011;45115;52.002;4.686;2022-09-09T12:38:39;12.45;;;7.15;;
59336;SDS011;45115;52.002;4.686;2022-09-09T12:41:15;14.23;;;6.68;;
59336;SDS011;45115;52.002;4.686;2022-09-09T12:43:47;16.27;;;7.53;;
59336;SDS011;45115;52.002;4.686;2022-09-09T12:46:17;10.70;;;5.47;;
59336;SDS011;45115;52.002;4.686;2022-09-09T12:48:52;10.60;;;5.53;;
59336;SDS011;45115;52.002;4.686;2022-09-09T12:51:21;8.90;;;4.50;;
59336;SDS011;45115;52.002;4.686;2022-09-09T12:53:52;10.25;;;5.10;;
59336;SDS011;45115;52.002;4.686;2022-09-09T12:56:20;9.43;;;5.15;;
59336;SDS011;45115;52.002;4.686;2022-09-09T12:58:49;9.73;;;5.15;;
59336;SDS011;45115;52.002;4.686;2022-09-09T13:01:20;11.85;;;4.95;;
59336;SDS011;45115;52.002;4.686;2022-09-09T13:03:48;6.47;;;4.40;;
59336;SDS011;45115;52.002;4.686;2022-09-09T13:06:20;7.93;;;4.53;;
59336;SDS011;45115;52.002;4.686;2022-09-09T13:08:56;9.27;;;4.43;;
59336;SDS011;45115;52.002;4.686;2022-09-09T13:11:25;11.05;;;4.45;;
59336;SDS011;45115;52.002;4.686;2022-09-09T13:13:54;8.20;;;4.65;;
59336;SDS011;45115;52.002;4.686;2022-09-09T13:16:24;9.57;;;5.00;;
59336;SDS011;45115;52.002;4.686;2022-09-09T13:18:55;10.32;;;5.13;;
59336;SDS011;45115;52.002;4.686;2022-09-09T13:21:32;11.23;;;5.10;;
59336;SDS011;45115;52.002;4.686;2022-09-09T13:24:00;7.38;;;4.47;;
59336;SDS011;45115;52.002;4.686;2022-09-09T13:26:29;9.88;;;4.55;;
59336;SDS011;45115;52.002;4.686;2022-09-09T13:29:07;7.85;;;4.50;;
59336;SDS011;45115;52.002;4.686;2022-09-09T13:31:42;8.20;;;4.13;;
59336;SDS011;45115;52.002;4.686;2022-09-09T13:34:10;9.23;;;4.90;;
59336;SDS011;45115;52.002;4.686;2022-09-09T13:36:40;6.80;;;4.20;;
59336;SDS011;45115;52.002;4.686;2022-09-09T13:39:13;8.05;;;4.13;;
59336;SDS011;45115;52.002;4.686;2022-09-09T13:41:43;5.57;;;4.10;;
59336;SDS011;45115;52.002;4.686;2022-09-09T13:44:16;9.40;;;5.07;;
59336;SDS011;45115;52.002;4.686;2022-09-09T13:46:58;6.60;;;3.63;;
59336;SDS011;45115;52.002;4.686;2022-09-09T13:49:27;5.97;;;3.28;;
59336;SDS011;45115;52.002;4.686;2022-09-09T13:52:04;7.15;;;3.42;;
59336;SDS011;45115;52.002;4.686;2022-09-09T13:54:35;5.38;;;3.10;;
59336;SDS011;45115;52.002;4.686;2022-09-09T13:57:01;9.05;;;3.20;;
59336;SDS011;45115;52.002;4.686;2022-09-09T13:59:29;4.88;;;2.90;;
59336;SDS011;45115;52.002;4.686;2022-09-09T14:01:56;8.18;;;3.40;;
59336;SDS011;45115;52.002;4.686;2022-09-09T14:04:23;6.03;;;2.75;;
59336;SDS011;45115;52.002;4.686;2022-09-09T14:06:49;4.25;;;2.22;;
59336;SDS011;45115;52.002;4.686;2022-09-09T14:09:18;4.72;;;2.40;;
59336;SDS011;45115;52.002;4.686;2022-09-09T14:11:45;4.78;;;2.40;;
59336;SDS011;45115;52.002;4.686;2022-09-09T14:14:11;3.05;;;2.10;;
59336;SDS011;45115;52.002;4.686;2022-09-09T14:16:38;6.00;;;2.65;;
59336;SDS011;45115;52.002;4.686;2022-09-09T14:19:04;5.18;;;2.80;;
59336;SDS011;45115;52.002;4.686;2022-09-09T14:21:32;5.05;;;2.90;;
59336;SDS011;45115;52.002;4.686;2022-09-09T14:24:00;6.35;;;3.10;;
59336;SDS011;45115;52.002;4.686;2022-09-09T14:26:28;5.32;;;3.08;;
59336;SDS011;45115;52.002;4.686;2022-09-09T14:28:55;6.47;;;3.10;;
59336;SDS011;45115;52.002;4.686;2022-09-09T14:31:22;6.93;;;3.42;;
59336;SDS011;45115;52.002;4.686;2022-09-09T14:33:49;6.70;;;3.55;;
59336;SDS011;45115;52.002;4.686;2022-09-09T14:36:17;5.72;;;3.53;;
59336;SDS011;45115;52.002;4.686;2022-09-09T14:38:44;7.63;;;4.18;;
59336;SDS011;45115;52.002;4.686;2022-09-09T14:41:12;9.32;;;4.38;;
59336;SDS011;45115;52.002;4.686;2022-09-09T14:43:43;9.57;;;4.47;;
59336;SDS011;45115;52.002;4.686;2022-09-09T14:46:11;8.13;;;4.35;;
59336;SDS011;45115;52.002;4.686;2022-09-09T14:48:39;10.13;;;4.82;;
59336;SDS011;45115;52.002;4.686;2022-09-09T14:51:07;8.85;;;4.72;;
59336;SDS011;45115;52.002;4.686;2022-09-09T14:53:34;6.60;;;3.85;;
59336;SDS011;45115;52.002;4.686;2022-09-09T14:56:05;7.22;;;3.42;;
59336;SDS011;45115;52.002;4.686;2022-09-09T14:58:33;6.13;;;3.10;;
59336;SDS011;45115;52.002;4.686;2022-09-09T15:01:05;5.80;;;3.30;;
59336;SDS011;45115;52.002;4.686;2022-09-09T15:03:35;7.13;;;3.13;;
59336;SDS011;45115;52.002;4.686;2022-09-09T15:06:06;7.25;;;3.10;;
59336;SDS011;45115;52.002;4.686;2022-09-09T15:08:34;6.90;;;2.50;;